nws-alerts: Checking more than four warning/county codes can delay the loading of your pages. You should use a cron job to get the data.
EllijayWeather Station Historical Data
Daily Summary for April 4, 2019 Units:  English    Metric   Both
Daily Weekly Monthly Yearly Custom
  High: Low: Average:
Temperature: 69.3 °F 37.2 °F 54.7 °F
Dew Point: 50.2 °F 34.2 °F 39.7 °F
Humidity: 90% 31% 61%
Wind Speed: 8.1mph 0.0mph 0.4mph
Wind Gust: 12.0mph - -
Wind- - SE
Pressure: 30.39 in 30.17 in -
Precipitation: 0.03 in    
Historical Graphs
 
 
Tabular Data for April 4, 2019
Time Temperature Dew Point Pressure Wind Wind Speed Wind Gust Humidity Rainfall Rate (Hourly) solar
00:04 46.9 °F 36.9 °F 30.38 in Calm     68% 0.00 in meteobridge W/m2
00:09 46.9 °F 37.2 °F 30.38 in Calm     69% 0.00 in meteobridge W/m2
00:14 46.9 °F 37.2 °F 30.37 in Calm     69% 0.00 in meteobridge W/m2
00:19 46.8 °F 37.6 °F 30.37 in Calm     70% 0.00 in meteobridge W/m2
00:24 46.8 °F 37.9 °F 30.38 in Calm     71% 0.00 in meteobridge W/m2
00:29 46.8 °F 37.6 °F 30.38 in Calm     70% 0.00 in meteobridge W/m2
00:34 46.6 °F 37.4 °F 30.38 in Calm     70% 0.00 in meteobridge W/m2
00:39 46.8 °F 37.9 °F 30.37 in Calm     71% 0.00 in meteobridge W/m2
00:44 46.6 °F 37.8 °F 30.38 in Calm     71% 0.00 in meteobridge W/m2
00:49 46.6 °F 37.4 °F 30.38 in Calm     70% 0.00 in meteobridge W/m2
00:54 46.6 °F 37.8 °F 30.38 in Calm     71% 0.00 in meteobridge W/m2
00:59 46.6 °F 37.8 °F 30.38 in Calm     71% 0.00 in meteobridge W/m2
01:04 46.6 °F 37.8 °F 30.38 in Calm     71% 0.00 in meteobridge W/m2
01:09 46.4 °F 37.6 °F 30.38 in Calm     71% 0.00 in meteobridge W/m2
01:14 46.4 °F 37.9 °F 30.38 in Calm     72% 0.00 in meteobridge W/m2
01:19 46.2 °F 37.8 °F 30.38 in Calm     72% 0.00 in meteobridge W/m2
01:24 46.2 °F 38.1 °F 30.38 in Calm     73% 0.00 in meteobridge W/m2
01:29 46.2 °F 37.8 °F 30.38 in Calm     72% 0.00 in meteobridge W/m2
01:34 46.0 °F 37.6 °F 30.38 in Calm     72% 0.00 in meteobridge W/m2
01:39 46.0 °F 37.9 °F 30.38 in Calm     73% 0.00 in meteobridge W/m2
01:44 45.9 °F 37.8 °F 30.39 in Calm     73% 0.00 in meteobridge W/m2
01:49 45.5 °F 37.8 °F 30.38 in Calm     74% 0.00 in meteobridge W/m2
01:54 45.3 °F 37.6 °F 30.38 in Calm     74% 0.00 in meteobridge W/m2
01:59 45.1 °F 37.4 °F 30.38 in Calm     74% 0.00 in meteobridge W/m2
02:04 45.0 °F 37.2 °F 30.38 in Calm     74% 0.00 in meteobridge W/m2
02:09 45.0 °F 37.6 °F 30.38 in Calm     75% 0.00 in meteobridge W/m2
02:14 45.0 °F 37.6 °F 30.38 in Calm     75% 0.00 in meteobridge W/m2
02:19 44.8 °F 37.4 °F 30.38 in Calm     75% 0.00 in meteobridge W/m2
02:24 44.8 °F 37.4 °F 30.38 in Calm     75% 0.00 in meteobridge W/m2
02:29 44.4 °F 37.4 °F 30.37 in Calm     76% 0.00 in meteobridge W/m2
02:34 44.2 °F 37.2 °F 30.37 in Calm     76% 0.00 in meteobridge W/m2
02:39 44.2 °F 37.2 °F 30.37 in Calm     76% 0.00 in meteobridge W/m2
02:44 44.1 °F 37.0 °F 30.37 in Calm     76% 0.00 in meteobridge W/m2
02:49 44.1 °F 37.0 °F 30.37 in Calm     76% 0.00 in meteobridge W/m2
02:54 43.9 °F 36.9 °F 30.37 in Calm     76% 0.00 in meteobridge W/m2
02:59 43.5 °F 36.9 °F 30.37 in Calm     77% 0.00 in meteobridge W/m2
03:04 43.5 °F 36.9 °F 30.37 in Calm     77% 0.00 in meteobridge W/m2
03:09 43.3 °F 36.7 °F 30.37 in Calm     77% 0.00 in meteobridge W/m2
03:14 43.3 °F 36.9 °F 30.37 in Calm     78% 0.00 in meteobridge W/m2
03:19 43.2 °F 36.7 °F 30.37 in Calm     78% 0.00 in meteobridge W/m2
03:24 43.0 °F 36.9 °F 30.37 in Calm     79% 0.00 in meteobridge W/m2
03:29 43.0 °F 36.9 °F 30.37 in Calm     79% 0.00 in meteobridge W/m2
03:34 42.8 °F 36.7 °F 30.37 in Calm     79% 0.00 in meteobridge W/m2
03:39 42.6 °F 36.5 °F 30.37 in Calm     79% 0.00 in meteobridge W/m2
03:44 42.4 °F 36.3 °F 30.37 in Calm     79% 0.00 in meteobridge W/m2
03:49 42.4 °F 36.7 °F 30.37 in Calm     80% 0.00 in meteobridge W/m2
03:54 42.3 °F 36.5 °F 30.37 in Calm     80% 0.00 in meteobridge W/m2
03:59 42.3 °F 36.5 °F 30.37 in Calm     80% 0.00 in meteobridge W/m2
04:04 42.1 °F 36.3 °F 30.37 in Calm     80% 0.00 in meteobridge W/m2
04:09 42.1 °F 36.7 °F 30.37 in Calm     81% 0.00 in meteobridge W/m2
04:14 41.7 °F 36.3 °F 30.36 in Calm     81% 0.00 in meteobridge W/m2
04:19 41.5 °F 36.1 °F 30.36 in Calm     81% 0.00 in meteobridge W/m2
04:24 41.5 °F 36.1 °F 30.36 in Calm     81% 0.00 in meteobridge W/m2
04:29 41.4 °F 36.0 °F 30.36 in Calm     81% 0.00 in meteobridge W/m2
04:34 41.2 °F 36.1 °F 30.36 in Calm     82% 0.00 in meteobridge W/m2
04:39 41.2 °F 36.1 °F 30.36 in Calm     82% 0.00 in meteobridge W/m2
04:44 40.8 °F 35.8 °F 30.36 in Calm     82% 0.00 in meteobridge W/m2
04:49 40.6 °F 36.0 °F 30.36 in Calm     83% 0.00 in meteobridge W/m2
04:54 40.6 °F 36.0 °F 30.36 in Calm     83% 0.00 in meteobridge W/m2
04:59 40.5 °F 35.8 °F 30.36 in Calm     83% 0.00 in meteobridge W/m2
05:04 40.5 °F 35.8 °F 30.35 in Calm     83% 0.00 in meteobridge W/m2
05:09 40.3 °F 35.6 °F 30.35 in Calm     83% 0.00 in meteobridge W/m2
05:14 40.3 °F 35.8 °F 30.36 in Calm     84% 0.00 in meteobridge W/m2
05:19 39.9 °F 35.4 °F 30.36 in Calm     84% 0.00 in meteobridge W/m2
05:24 39.7 °F 35.2 °F 30.36 in Calm     84% 0.00 in meteobridge W/m2
05:29 39.7 °F 35.6 °F 30.36 in Calm     85% 0.00 in meteobridge W/m2
05:34 39.6 °F 35.4 °F 30.35 in Calm     85% 0.00 in meteobridge W/m2
05:39 39.4 °F 35.2 °F 30.35 in Calm     85% 0.00 in meteobridge W/m2
05:44 39.2 °F 35.4 °F 30.35 in Calm     86% 0.00 in meteobridge W/m2
05:49 39.0 °F 35.2 °F 30.35 in Calm     86% 0.00 in meteobridge W/m2
05:54 39.0 °F 35.2 °F 30.35 in Calm     86% 0.00 in meteobridge W/m2
05:59 39.0 °F 35.2 °F 30.36 in Calm     86% 0.00 in meteobridge W/m2
06:04 39.0 °F 35.2 °F 30.36 in Calm     86% 0.00 in meteobridge W/m2
06:09 38.8 °F 35.1 °F 30.36 in Calm     86% 0.00 in meteobridge W/m2
06:14 38.8 °F 35.1 °F 30.36 in Calm     86% 0.00 in meteobridge W/m2
06:19 38.8 °F 35.1 °F 30.36 in Calm     86% 0.00 in meteobridge W/m2
06:24 38.7 °F 34.9 °F 30.37 in Calm     86% 0.00 in meteobridge W/m2
06:29 38.7 °F 34.9 °F 30.37 in Calm     86% 0.00 in meteobridge W/m2
06:34 38.7 °F 34.9 °F 30.37 in Calm     86% 0.00 in meteobridge W/m2
06:39 38.5 °F 34.9 °F 30.37 in Calm     87% 0.00 in meteobridge W/m2
06:44 38.1 °F 34.5 °F 30.37 in Calm     87% 0.00 in meteobridge W/m2
06:49 38.1 °F 34.9 °F 30.37 in Calm     88% 0.00 in meteobridge W/m2
06:54 37.9 °F 34.7 °F 30.37 in Calm     88% 0.00 in meteobridge W/m2
06:59 37.8 °F 34.5 °F 30.37 in Calm     88% 0.00 in meteobridge W/m2
07:04 37.8 °F 34.5 °F 30.37 in Calm     88% 0.00 in meteobridge W/m2
07:09 37.6 °F 34.3 °F 30.37 in Calm     88% 0.00 in meteobridge W/m2
07:14 37.4 °F 34.2 °F 30.37 in Calm     88% 0.00 in meteobridge W/m2
07:19 37.4 °F 34.2 °F 30.37 in Calm     88% 0.00 in meteobridge W/m2
07:24 37.2 °F 34.3 °F 30.37 in Calm     89% 0.00 in meteobridge W/m2
07:29 37.2 °F 34.3 °F 30.37 in Calm     89% 0.00 in meteobridge W/m2
07:34 37.2 °F 34.3 °F 30.37 in Calm     89% 0.00 in meteobridge W/m2
07:39 37.2 °F 34.3 °F 30.37 in Calm     89% 0.00 in meteobridge W/m2
07:44 37.2 °F 34.3 °F 30.37 in Calm     89% 0.00 in meteobridge W/m2
07:49 37.2 °F 34.3 °F 30.37 in Calm     89% 0.00 in meteobridge W/m2
07:54 37.2 °F 34.3 °F 30.37 in Calm     89% 0.00 in meteobridge W/m2
07:59 37.6 °F 34.9 °F 30.37 in Calm     90% 0.00 in meteobridge W/m2
08:04 37.8 °F 35.1 °F 30.37 in Calm     90% 0.00 in meteobridge W/m2
08:09 38.1 °F 35.4 °F 30.37 in Calm     90% 0.00 in meteobridge W/m2
08:14 38.5 °F 35.8 °F 30.37 in Calm     90% 0.00 in meteobridge W/m2
08:19 38.8 °F 36.0 °F 30.37 in Calm     89% 0.00 in meteobridge W/m2
08:24 39.2 °F 36.3 °F 30.37 in Calm     89% 0.00 in meteobridge W/m2
08:29 39.9 °F 36.7 °F 30.37 in Calm     88% 0.00 in meteobridge W/m2
08:34 40.5 °F 37.2 °F 30.38 in Calm     88% 0.00 in meteobridge W/m2
08:39 40.8 °F 37.2 °F 30.38 in Calm     87% 0.00 in meteobridge W/m2
08:44 41.2 °F 37.6 °F 30.38 in Calm     87% 0.00 in meteobridge W/m2
08:49 41.7 °F 38.5 °F 30.38 in Calm     88% 0.00 in meteobridge W/m2
08:54 42.3 °F 38.7 °F 30.38 in Calm     87% 0.00 in meteobridge W/m2
08:59 42.8 °F 39.2 °F 30.38 in Calm     87% 0.00 in meteobridge W/m2
09:04 43.5 °F 39.6 °F 30.38 in Calm     86% 0.00 in meteobridge W/m2
09:09 44.2 °F 40.1 °F 30.38 in Calm     85% 0.00 in meteobridge W/m2
09:14 45.1 °F 40.8 °F 30.38 in Calm     85% 0.00 in meteobridge W/m2
09:19 45.9 °F 41.4 °F 30.38 in Calm     84% 0.00 in meteobridge W/m2
09:24 46.8 °F 41.2 °F 30.38 in Calm     81% 0.00 in meteobridge W/m2
09:29 47.8 °F 41.9 °F 30.37 in Calm     80% 0.00 in meteobridge W/m2
09:34 48.7 °F 42.8 °F 30.37 in Calm     80% 0.00 in meteobridge W/m2
09:39 50.0 °F 43.3 °F 30.38 in Calm     78% 0.00 in meteobridge W/m2
09:44 52.3 °F 42.1 °F 30.37 in Calm     68% 0.00 in meteobridge W/m2
09:49 54.3 °F 42.4 °F 30.37 in Calm     64% 0.00 in meteobridge W/m2
09:54 55.8 °F 42.1 °F 30.37 in Calm   1.0 mph 60% 0.00 in meteobridge W/m2
09:59 57.0 °F 41.5 °F 30.37 in Calm   1.0 mph 56% 0.00 in meteobridge W/m2
10:04 58.1 °F 41.0 °F 30.37 in Calm   2.0 mph 53% 0.00 in meteobridge W/m2
10:09 58.6 °F 41.5 °F 30.37 in Calm     53% 0.00 in meteobridge W/m2
10:14 59.4 °F 41.7 °F 30.37 in NW 2.0 mph 2.0 mph 52% 0.00 in meteobridge W/m2
10:19 59.7 °F 41.5 °F 30.37 in Calm     51% 0.00 in meteobridge W/m2
10:24 60.1 °F 41.9 °F 30.37 in Calm   1.0 mph 51% 0.00 in meteobridge W/m2
10:29 60.6 °F 41.4 °F 30.37 in Calm   1.0 mph 49% 0.00 in meteobridge W/m2
10:34 61.0 °F 41.2 °F 30.38 in Calm   2.0 mph 48% 0.00 in meteobridge W/m2
10:39 61.3 °F 41.5 °F 30.38 in Calm     48% 0.00 in meteobridge W/m2
10:44 61.9 °F 42.4 °F 30.38 in Calm     49% 0.00 in meteobridge W/m2
10:49 62.4 °F 41.9 °F 30.38 in Calm     47% 0.00 in meteobridge W/m2
10:54 62.8 °F 42.3 °F 30.38 in Calm   1.0 mph 47% 0.00 in meteobridge W/m2
10:59 63.1 °F 42.1 °F 30.37 in Calm   5.0 mph 46% 0.00 in meteobridge W/m2
11:04 63.7 °F 41.9 °F 30.37 in Calm   6.0 mph 45% 0.00 in meteobridge W/m2
11:09 64.0 °F 42.3 °F 30.37 in Calm     45% 0.00 in meteobridge W/m2
11:14 64.2 °F 42.4 °F 30.37 in Calm   1.0 mph 45% 0.00 in meteobridge W/m2
11:19 64.6 °F 43.3 °F 30.36 in Calm   1.0 mph 46% 0.00 in meteobridge W/m2
11:24 65.7 °F 42.6 °F 30.36 in Calm   4.0 mph 43% 0.00 in meteobridge W/m2
11:29 65.8 °F 42.8 °F 30.36 in Calm     43% 0.00 in meteobridge W/m2
11:34 66.2 °F 41.7 °F 30.35 in Calm   1.0 mph 41% 0.00 in meteobridge W/m2
11:39 66.6 °F 42.8 °F 30.35 in Calm   1.0 mph 42% 0.00 in meteobridge W/m2
11:44 66.6 °F 42.8 °F 30.35 in Calm   1.0 mph 42% 0.00 in meteobridge W/m2
11:49 66.7 °F 43.0 °F 30.34 in Calm     42% 0.00 in meteobridge W/m2
11:54 66.9 °F 40.5 °F 30.34 in Calm   4.0 mph 38% 0.00 in meteobridge W/m2
11:59 67.3 °F 40.1 °F 30.34 in East 4.0 mph 6.0 mph 37% 0.00 in meteobridge W/m2
12:04 66.7 °F 39.0 °F 30.34 in Calm   5.0 mph 36% 0.00 in meteobridge W/m2
12:09 66.4 °F 39.9 °F 30.34 in SE 0.9 mph 5.0 mph 38% 0.00 in meteobridge W/m2
12:14 66.4 °F 38.7 °F 30.34 in SE 4.0 mph 4.0 mph 36% 0.00 in meteobridge W/m2
12:19 66.4 °F 39.4 °F 30.34 in SE 4.0 mph 4.0 mph 37% 0.00 in meteobridge W/m2
12:24 66.7 °F 39.0 °F 30.34 in Calm   8.0 mph 36% 0.00 in meteobridge W/m2
12:29 66.9 °F 39.7 °F 30.33 in ESE 0.9 mph 5.0 mph 37% 0.00 in meteobridge W/m2
12:34 66.7 °F 39.6 °F 30.33 in Calm   7.0 mph 37% 0.00 in meteobridge W/m2
12:39 66.6 °F 39.6 °F 30.33 in SE 2.0 mph 6.0 mph 37% 0.00 in meteobridge W/m2
12:44 66.7 °F 39.0 °F 30.33 in East 4.0 mph 7.0 mph 36% 0.00 in meteobridge W/m2
12:49 66.7 °F 39.0 °F 30.32 in Calm   6.0 mph 36% 0.00 in meteobridge W/m2
12:54 67.1 °F 39.9 °F 30.32 in Calm     37% 0.00 in meteobridge W/m2
12:59 67.6 °F 40.5 °F 30.32 in SE 0.9 mph 6.0 mph 37% 0.00 in meteobridge W/m2
13:04 67.8 °F 39.9 °F 30.31 in ESE 2.0 mph 5.0 mph 36% 0.00 in meteobridge W/m2
13:09 68.0 °F 39.4 °F 30.32 in SE 4.0 mph 5.0 mph 35% 0.00 in meteobridge W/m2
13:14 68.4 °F 39.6 °F 30.32 in ESE 0.9 mph 4.0 mph 35% 0.00 in meteobridge W/m2
13:19 68.5 °F 38.3 °F 30.32 in Calm   4.0 mph 33% 0.00 in meteobridge W/m2
13:24 68.7 °F 37.6 °F 30.31 in ESE 0.9 mph 2.0 mph 32% 0.00 in meteobridge W/m2
13:29 69.1 °F 40.3 °F 30.32 in Calm   8.0 mph 35% 0.00 in meteobridge W/m2
13:34 68.9 °F 37.0 °F 30.32 in East 4.0 mph 7.0 mph 31% 0.00 in meteobridge W/m2
13:39 68.2 °F 37.2 °F 30.32 in SE 6.0 mph 11.0 mph 32% 0.00 in meteobridge W/m2
13:44 68.0 °F 37.8 °F 30.30 in SE 0.9 mph 7.0 mph 33% 0.00 in meteobridge W/m2
13:49 68.5 °F 37.6 °F 30.30 in ESE 2.0 mph 5.0 mph 32% 0.00 in meteobridge W/m2
13:54 68.7 °F 38.5 °F 30.30 in Calm   5.0 mph 33% 0.00 in meteobridge W/m2
13:59 68.9 °F 38.7 °F 30.30 in Calm   1.0 mph 33% 0.00 in meteobridge W/m2
14:04 69.3 °F 38.1 °F 30.30 in Calm   8.0 mph 32% 0.00 in meteobridge W/m2
14:09 69.3 °F 38.1 °F 30.30 in Calm   6.0 mph 32% 0.00 in meteobridge W/m2
14:14 69.1 °F 37.9 °F 30.30 in Calm   5.0 mph 32% 0.00 in meteobridge W/m2
14:19 68.9 °F 38.7 °F 30.30 in ESE 0.9 mph 2.0 mph 33% 0.00 in meteobridge W/m2
14:24 68.9 °F 38.7 °F 30.30 in Calm   2.0 mph 33% 0.00 in meteobridge W/m2
14:29 68.7 °F 38.5 °F 30.29 in Calm   4.0 mph 33% 0.00 in meteobridge W/m2
14:34 68.4 °F 37.4 °F 30.29 in ESE 4.0 mph 7.0 mph 32% 0.00 in meteobridge W/m2
14:39 67.6 °F 37.6 °F 30.29 in Calm   8.0 mph 33% 0.00 in meteobridge W/m2
14:44 67.6 °F 37.6 °F 30.28 in SE 0.9 mph 4.0 mph 33% 0.00 in meteobridge W/m2
14:49 67.6 °F 38.3 °F 30.28 in East 2.0 mph 7.0 mph 34% 0.00 in meteobridge W/m2
14:54 67.5 °F 38.1 °F 30.28 in SE 6.9 mph 8.0 mph 34% 0.00 in meteobridge W/m2
14:59 67.1 °F 37.8 °F 30.28 in South 0.9 mph 5.0 mph 34% 0.00 in meteobridge W/m2
15:04 66.9 °F 37.6 °F 30.27 in SE 0.9 mph 7.0 mph 34% 0.00 in meteobridge W/m2
15:09 67.1 °F 38.5 °F 30.27 in SE 2.0 mph 4.0 mph 35% 0.00 in meteobridge W/m2
15:14 67.3 °F 37.9 °F 30.27 in East 4.0 mph 7.0 mph 34% 0.00 in meteobridge W/m2
15:19 67.1 °F 38.5 °F 30.27 in ESE 0.9 mph 8.0 mph 35% 0.00 in meteobridge W/m2
15:24 66.9 °F 38.3 °F 30.27 in ESE 8.1 mph 8.0 mph 35% 0.00 in meteobridge W/m2
15:29 66.7 °F 38.3 °F 30.26 in Calm   1.0 mph 35% 0.00 in meteobridge W/m2
15:34 66.7 °F 38.3 °F 30.26 in SE 4.0 mph 9.0 mph 35% 0.00 in meteobridge W/m2
15:39 66.6 °F 38.1 °F 30.25 in ESE 0.9 mph 9.0 mph 35% 0.00 in meteobridge W/m2
15:44 66.7 °F 38.3 °F 30.25 in ESE 4.9 mph 8.0 mph 35% 0.00 in meteobridge W/m2
15:49 66.6 °F 38.1 °F 30.24 in Calm     35% 0.00 in meteobridge W/m2
15:54 66.7 °F 38.3 °F 30.24 in Calm     35% 0.00 in meteobridge W/m2
15:59 66.6 °F 38.8 °F 30.24 in Calm     36% 0.00 in meteobridge W/m2
16:04 66.7 °F 39.0 °F 30.24 in Calm     36% 0.00 in meteobridge W/m2
16:09 66.6 °F 38.8 °F 30.24 in Calm     36% 0.00 in meteobridge W/m2
16:14 66.4 °F 39.4 °F 30.24 in Calm     37% 0.00 in meteobridge W/m2
16:19 66.4 °F 39.4 °F 30.24 in Calm     37% 0.00 in meteobridge W/m2
16:24 66.6 °F 39.6 °F 30.24 in Calm     37% 0.00 in meteobridge W/m2
16:29 66.4 °F 38.7 °F 30.23 in Calm     36% 0.00 in meteobridge W/m2
16:34 66.4 °F 39.9 °F 30.23 in Calm     38% 0.00 in meteobridge W/m2
16:39 66.4 °F 38.7 °F 30.24 in Calm     36% 0.00 in meteobridge W/m2
16:44 66.4 °F 38.7 °F 30.23 in Calm     36% 0.00 in meteobridge W/m2
16:49 66.6 °F 39.6 °F 30.23 in Calm     37% 0.00 in meteobridge W/m2
16:54 66.6 °F 39.6 °F 30.23 in Calm     37% 0.00 in meteobridge W/m2
16:59 66.6 °F 39.6 °F 30.23 in Calm     37% 0.00 in meteobridge W/m2
17:04 66.6 °F 39.6 °F 30.23 in Calm     37% 0.00 in meteobridge W/m2
17:09 66.6 °F 39.6 °F 30.23 in Calm     37% 0.00 in meteobridge W/m2
17:14 66.6 °F 39.6 °F 30.23 in Calm     37% 0.00 in meteobridge W/m2
17:19 66.6 °F 39.6 °F 30.22 in Calm     37% 0.00 in meteobridge W/m2
17:24 66.6 °F 39.6 °F 30.22 in Calm     37% 0.00 in meteobridge W/m2
17:29 66.4 °F 39.4 °F 30.22 in Calm     37% 0.00 in meteobridge W/m2
17:34 66.4 °F 39.9 °F 30.23 in Calm     38% 0.00 in meteobridge W/m2
17:39 66.4 °F 39.9 °F 30.23 in Calm     38% 0.00 in meteobridge W/m2
17:44 66.4 °F 40.6 °F 30.23 in Calm     39% 0.00 in meteobridge W/m2
17:49 66.4 °F 40.6 °F 30.23 in Calm     39% 0.00 in meteobridge W/m2
17:54 66.4 °F 40.6 °F 30.23 in Calm     39% 0.00 in meteobridge W/m2
17:59 66.0 °F 40.3 °F 30.22 in Calm     39% 0.00 in meteobridge W/m2
18:04 65.8 °F 40.1 °F 30.22 in Calm     39% 0.00 in meteobridge W/m2
18:09 65.7 °F 40.1 °F 30.22 in Calm     39% 0.00 in meteobridge W/m2
18:14 65.7 °F 40.1 °F 30.22 in Calm     39% 0.00 in meteobridge W/m2
18:19 65.5 °F 39.9 °F 30.22 in Calm     39% 0.00 in meteobridge W/m2
18:24 65.5 °F 39.9 °F 30.22 in Calm     39% 0.00 in meteobridge W/m2
18:29 65.1 °F 38.8 °F 30.22 in Calm     38% 0.00 in meteobridge W/m2
18:34 65.1 °F 38.8 °F 30.22 in Calm     38% 0.00 in meteobridge W/m2
18:39 65.1 °F 38.1 °F 30.22 in Calm     37% 0.00 in meteobridge W/m2
18:44 65.1 °F 38.8 °F 30.22 in Calm     38% 0.00 in meteobridge W/m2
18:49 64.9 °F 39.4 °F 30.22 in Calm     39% 0.00 in meteobridge W/m2
18:54 64.8 °F 38.5 °F 30.23 in Calm     38% 0.00 in meteobridge W/m2
18:59 64.6 °F 38.5 °F 30.23 in Calm     38% 0.00 in meteobridge W/m2
19:04 64.6 °F 39.0 °F 30.23 in Calm     39% 0.00 in meteobridge W/m2
19:09 64.2 °F 39.4 °F 30.24 in Calm     40% 0.00 in meteobridge W/m2
19:14 64.2 °F 39.4 °F 30.24 in Calm     40% 0.00 in meteobridge W/m2
19:19 64.0 °F 39.2 °F 30.23 in Calm     40% 0.00 in meteobridge W/m2
19:24 63.9 °F 39.0 °F 30.22 in Calm     40% 0.00 in meteobridge W/m2
19:29 63.9 °F 39.7 °F 30.22 in Calm     41% 0.00 in meteobridge W/m2
19:34 63.7 °F 40.1 °F 30.22 in Calm     42% 0.00 in meteobridge W/m2
19:39 63.3 °F 40.5 °F 30.22 in Calm     43% 0.00 in meteobridge W/m2
19:44 63.3 °F 41.0 °F 30.22 in Calm     44% 0.00 in meteobridge W/m2
19:49 63.3 °F 41.0 °F 30.22 in Calm     44% 0.00 in meteobridge W/m2
19:54 63.3 °F 41.5 °F 30.22 in Calm     45% 0.00 in meteobridge W/m2
19:59 63.1 °F 41.5 °F 30.21 in Calm     45% 0.00 in meteobridge W/m2
20:04 63.1 °F 42.1 °F 30.21 in Calm     46% 0.00 in meteobridge W/m2
20:09 63.0 °F 42.4 °F 30.21 in Calm     47% 0.00 in meteobridge W/m2
20:14 62.8 °F 42.3 °F 30.21 in Calm     47% 0.00 in meteobridge W/m2
20:19 62.4 °F 43.0 °F 30.21 in Calm     49% 0.00 in meteobridge W/m2
20:24 61.9 °F 43.5 °F 30.21 in Calm     51% 0.00 in meteobridge W/m2
20:29 61.3 °F 44.1 °F 30.21 in Calm     53% 0.00 in meteobridge W/m2
20:34 60.8 °F 44.1 °F 30.21 in Calm     54% 0.00 in meteobridge W/m2
20:39 60.4 °F 45.7 °F 30.20 in Calm     58% 0.00 in meteobridge W/m2
20:44 59.7 °F 48.4 °F 30.20 in Calm     66% 0.00 in meteobridge W/m2
20:49 58.8 °F 49.1 °F 30.20 in Calm     70% 0.00 in meteobridge W/m2
20:54 57.6 °F 48.6 °F 30.20 in Calm     72% 0.01 in meteobridge W/m2
20:59 56.8 °F 47.1 °F 30.19 in Calm     70% 0.01 in meteobridge W/m2
21:04 56.7 °F 50.2 °F 30.19 in Calm     79% 0.01 in meteobridge W/m2
21:09 55.8 °F 48.4 °F 30.19 in Calm     76% 0.01 in meteobridge W/m2
21:14 55.4 °F 50.0 °F 30.19 in Calm     82% 0.01 in meteobridge W/m2
21:19 54.9 °F 49.5 °F 30.19 in Calm     82% 0.02 in meteobridge W/m2
21:24 54.7 °F 49.6 °F 30.19 in Calm     83% 0.02 in meteobridge W/m2
21:29 54.5 °F 48.2 °F 30.19 in Calm     79% 0.02 in meteobridge W/m2
21:34 54.7 °F 48.4 °F 30.19 in Calm   1.0 mph 79% 0.02 in meteobridge W/m2
21:39 54.9 °F 48.7 °F 30.20 in Calm     80% 0.02 in meteobridge W/m2
21:44 54.9 °F 47.8 °F 30.19 in Calm     77% 0.02 in meteobridge W/m2
21:49 54.9 °F 49.1 °F 30.19 in Calm     81% 0.02 in meteobridge W/m2
21:54 54.9 °F 49.1 °F 30.19 in Calm     81% 0.01 in meteobridge W/m2
21:59 54.9 °F 48.7 °F 30.19 in Calm     80% 0.01 in meteobridge W/m2
22:04 54.9 °F 49.8 °F 30.18 in Calm   1.0 mph 83% 0.01 in meteobridge W/m2
22:09 54.9 °F 48.2 °F 30.18 in SE 2.0 mph 2.0 mph 78% 0.01 in meteobridge W/m2
22:14 55.0 °F 47.3 °F 30.18 in Calm     75% 0.01 in meteobridge W/m2
22:19 55.2 °F 47.8 °F 30.18 in Calm     76% 0.00 in meteobridge W/m2
22:24 55.2 °F 46.8 °F 30.17 in Calm   5.0 mph 73% 0.00 in meteobridge W/m2
22:29 55.8 °F 46.9 °F 30.18 in Calm     72% 0.00 in meteobridge W/m2
22:34 56.1 °F 46.8 °F 30.18 in Calm   4.0 mph 71% 0.00 in meteobridge W/m2
22:39 56.5 °F 46.8 °F 30.18 in Calm   2.0 mph 70% 0.00 in meteobridge W/m2
22:44 56.7 °F 46.9 °F 30.18 in SSE 0.9 mph 4.0 mph 70% 0.00 in meteobridge W/m2
22:49 57.0 °F 46.2 °F 30.17 in SSE 4.9 mph 7.0 mph 67% 0.00 in meteobridge W/m2
22:54 57.4 °F 46.0 °F 30.17 in Calm   5.0 mph 66% 0.00 in meteobridge W/m2
22:59 57.6 °F 45.9 °F 30.17 in Calm   7.0 mph 65% 0.00 in meteobridge W/m2
23:04 57.6 °F 45.9 °F 30.17 in Calm   4.0 mph 65% 0.00 in meteobridge W/m2
23:09 57.6 °F 45.9 °F 30.17 in Calm   2.0 mph 65% 0.00 in meteobridge W/m2
23:14 57.6 °F 45.5 °F 30.18 in ESE 0.9 mph 7.0 mph 64% 0.00 in meteobridge W/m2
23:19 57.4 °F 45.7 °F 30.18 in Calm   9.0 mph 65% 0.00 in meteobridge W/m2
23:24 57.4 °F 45.7 °F 30.18 in Calm   2.0 mph 65% 0.00 in meteobridge W/m2
23:29 57.4 °F 45.7 °F 30.18 in Calm   6.0 mph 65% 0.00 in meteobridge W/m2
23:34 57.0 °F 46.2 °F 30.18 in SE 4.9 mph 5.0 mph 67% 0.00 in meteobridge W/m2
23:39 56.8 °F 47.1 °F 30.18 in Calm   1.0 mph 70% 0.00 in meteobridge W/m2
23:44 56.1 °F 46.4 °F 30.18 in SE 0.9 mph 1.0 mph 70% 0.00 in meteobridge W/m2
23:49 55.8 °F 46.9 °F 30.18 in SE 0.9 mph 4.0 mph 72% 0.00 in meteobridge W/m2
23:54 55.2 °F 46.4 °F 30.18 in SSE 0.9 mph 6.0 mph 72% 0.01 in meteobridge W/m2
23:59 55.2 °F 46.8 °F 30.18 in SE 4.9 mph 12.0 mph 73% 0.01 in meteobridge W/m2
EllijayWeather
Compliments of Weather Underground - 2.5 mb